Time;durP1;ratioP1;P1;durP2;ratioP2;P2;SDS_P1;SDS_P2;PMS_P1;PMS_P2;Temp;Humidity;BMP_temperature;BMP_pressure;BME280_temperature;BME280_humidity;BME280_pressure;Samples;Min_cycle;Max_cycle;Signal;HPM_P1;HPM_P2
2021/08/04 00:00:45;;;;;;;7.28;5.22;;;;;;;15.32;76.83;99656.73;1809195;79;20449;-62
2021/08/04 00:03:11;;;;;;;7.90;5.67;;;;;;;15.28;76.83;99656.53;1771574;80;21051;-62
2021/08/04 00:05:38;;;;;;;7.90;5.00;;;;;;;15.32;76.91;99658.11;1801217;79;21002;-62
2021/08/04 00:08:07;;;;;;;9.10;6.05;;;;;;;15.33;76.88;99661.94;1782450;80;21640;-63
2021/08/04 00:10:34;;;;;;;7.83;5.92;;;;;;;15.34;76.87;99660.80;1770137;79;21026;-63
2021/08/04 00:13:02;;;;;;;9.13;5.83;;;;;;;15.28;76.97;99664.76;1769623;80;21109;-64
2021/08/04 00:15:30;;;;;;;8.40;6.12;;;;;;;15.26;77.02;99662.08;1792950;78;21082;-63
2021/08/04 00:17:56;;;;;;;7.40;5.90;;;;;;;15.27;77.01;99659.56;1788889;80;21058;-63
2021/08/04 00:20:22;;;;;;;;;;;;;;;15.26;76.98;99658.78;1792535;78;21084;-63
2021/08/04 00:22:49;;;;;;;8.00;5.60;;;;;;;15.23;77.02;99664.06;1800180;80;20103;-63
2021/08/04 00:25:15;;;;;;;9.33;5.95;;;;;;;15.16;77.26;99668.55;1800797;80;21058;-63
2021/08/04 00:27:41;;;;;;;9.78;6.30;;;;;;;15.10;77.17;99672.52;1778600;80;21074;-63
2021/08/04 00:30:09;;;;;;;10.10;5.95;;;;;;;15.01;77.21;99677.08;1799131;79;20998;-64
2021/08/04 00:32:36;;;;;;;7.15;5.35;;;;;;;14.97;77.45;99675.23;1778076;79;21074;-63
2021/08/04 00:35:03;;;;;;;8.53;5.75;;;;;;;14.98;77.47;99679.06;1785053;78;21023;-64
2021/08/04 00:37:30;;;;;;;7.17;5.10;;;;;;;15.01;77.36;99680.37;1752872;81;21061;-64
2021/08/04 00:39:58;;;;;;;8.30;5.65;;;;;;;15.02;77.35;99683.38;1779181;79;21475;-64
2021/08/04 00:42:25;;;;;;;7.62;5.80;;;;;;;14.99;77.55;99676.55;1775288;79;21204;-64
2021/08/04 00:44:52;;;;;;;9.70;5.42;;;;;;;14.95;77.69;99680.45;1799522;79;21012;-64
2021/08/04 00:47:19;;;;;;;12.55;5.53;;;;;;;14.93;77.72;99672.28;1781984;80;21576;-64
2021/08/04 00:49:47;;;;;;;7.10;5.10;;;;;;;14.94;77.62;99677.48;1774408;79;21042;-64
2021/08/04 00:52:13;;;;;;;8.78;5.00;;;;;;;14.94;77.55;99669.81;1778050;80;21063;-64
2021/08/04 00:54:40;;;;;;;8.63;5.33;;;;;;;14.94;77.48;99670.63;1798694;80;21608;-64
2021/08/04 00:57:07;;;;;;;10.40;5.62;;;;;;;14.94;77.49;99674.73;1781877;80;21046;-64
2021/08/04 00:59:35;;;;;;;7.72;5.37;;;;;;;14.86;77.11;99675.98;1782769;80;20995;-65
2021/08/04 01:02:20;;;;;;;8.75;5.33;;;;;;;14.77;77.34;99672.31;1774645;79;21107;-64
2021/08/04 01:04:55;;;;;;;8.63;5.25;;;;;;;14.72;77.50;99676.50;1751954;79;21007;-63
2021/08/04 01:07:35;;;;;;;7.72;5.83;;;;;;;14.69;77.35;99677.11;1799841;78;21047;-63
2021/08/04 01:10:22;;;;;;;6.45;5.20;;;;;;;14.64;77.27;99673.06;1750711;81;21534;-63
2021/08/04 01:13:13;;;;;;;9.45;5.40;;;;;;;14.59;77.40;99680.84;1795361;78;21648;-63
2021/08/04 01:15:48;;;;;;;8.43;5.60;;;;;;;14.58;77.48;99671.53;1785877;78;21066;-64
2021/08/04 01:18:22;;;;;;;8.40;4.97;;;;;;;14.52;77.60;99676.84;1772710;79;21056;-63
2021/08/04 01:20:49;;;;;;;8.45;5.47;;;;;;;14.45;77.72;99676.66;1779175;80;20992;-63
2021/08/04 01:23:45;;;;;;;9.45;5.08;;;;;;;14.43;77.71;99683.00;1769105;79;21018;-63
2021/08/04 01:26:30;;;;;;;8.43;4.85;;;;;;;14.40;77.70;99671.27;1785352;79;21055;-63
2021/08/04 01:28:59;;;;;;;7.87;5.53;;;;;;;14.40;78.12;99683.59;1786491;79;21059;-64
2021/08/04 01:31:31;;;;;;;8.03;5.22;;;;;;;14.41;78.31;99679.76;1784391;80;21023;-64
2021/08/04 01:33:59;;;;;;;8.93;5.28;;;;;;;14.42;78.43;99666.30;1776160;80;21492;-64
2021/08/04 01:36:26;;;;;;;12.15;5.03;;;;;;;14.31;78.48;99648.95;1758320;79;21074;-64
2021/08/04 01:38:53;;;;;;;8.28;5.40;;;;;;;14.40;78.68;99667.16;1787681;79;21453;-63
2021/08/04 01:41:20;;;;;;;7.60;5.12;;;;;;;14.40;78.48;99669.91;1795304;78;21073;-64
2021/08/04 01:43:47;;;;;;;6.90;5.00;;;;;;;14.38;77.92;99672.11;1797788;78;20974;-64
2021/08/04 01:46:13;;;;;;;6.90;5.05;;;;;;;14.37;77.65;99673.80;1790009;80;21070;-64
2021/08/04 01:48:41;;;;;;;6.87;4.55;;;;;;;14.29;77.56;99673.87;1769267;79;20961;-64
2021/08/04 01:51:10;;;;;;;6.72;4.92;;;;;;;14.17;77.74;99670.77;1780451;80;21550;-64
2021/08/04 01:53:36;;;;;;;7.58;4.62;;;;;;;14.03;78.28;99664.41;1768832;81;21523;-63
2021/08/04 01:56:04;;;;;;;6.95;4.67;;;;;;;13.96;78.51;99667.52;1781812;79;21067;-64
2021/08/04 01:58:31;;;;;;;7.47;4.70;;;;;;;13.95;78.60;99666.47;1777328;79;21049;-63
2021/08/04 02:00:57;;;;;;;5.50;4.50;;;;;;;13.95;78.82;99671.94;1800751;78;21037;-64
2021/08/04 02:03:25;;;;;;;8.48;4.70;;;;;;;13.97;78.84;99673.81;1799911;79;21458;-63
2021/08/04 02:05:52;;;;;;;7.80;4.95;;;;;;;14.01;78.81;99672.11;1800014;78;21011;-63
2021/08/04 02:08:40;;;;;;;7.08;5.25;;;;;;;14.01;78.95;99671.30;1785484;79;21071;-63
2021/08/04 02:11:16;;;;;;;7.12;4.72;;;;;;;14.02;78.98;99667.45;1772349;78;21095;-63
2021/08/04 02:14:02;;;;;;;6.67;4.85;;;;;;;14.05;78.79;99667.68;1754338;81;21014;-63
2021/08/04 02:16:40;;;;;;;7.92;5.03;;;;;;;14.08;78.72;99673.92;1813166;79;21070;-63
2021/08/04 02:19:46;;;;;;;6.92;4.97;;;;;;;14.09;78.60;99670.09;1810775;79;21516;-63
2021/08/04 02:22:24;;;;;;;7.03;4.55;;;;;;;14.04;78.62;99675.63;1809663;79;21018;-63
2021/08/04 02:24:54;;;;;;;7.33;4.67;;;;;;;14.02;78.52;99681.96;1798726;79;21571;-64
2021/08/04 02:27:21;;;;;;;5.90;4.72;;;;;;;14.03;78.23;99684.94;1813136;79;21026;-64
2021/08/04 02:29:47;;;;;;;10.32;5.00;;;;;;;14.04;78.27;99686.57;1815655;79;21455;-63
2021/08/04 02:32:14;;;;;;;;;;;;;;;14.03;78.24;99681.41;1788723;79;21486;-64
2021/08/04 02:34:40;;;;;;;7.62;5.40;;;;;;;13.98;78.34;99690.50;1812566;79;20761;-64
2021/08/04 02:37:07;;;;;;;7.20;4.97;;;;;;;13.89;78.61;99687.59;1796290;79;21857;-63
2021/08/04 02:39:33;;;;;;;5.85;4.42;;;;;;;13.93;78.55;99685.08;1809042;79;21056;-64
2021/08/04 02:42:00;;;;;;;6.72;4.67;;;;;;;13.96;78.52;99687.22;1760569;79;21879;-64
2021/08/04 02:44:26;;;;;;;;;;;;;;;14.00;78.59;99688.27;1817678;79;21029;-63
2021/08/04 02:46:53;;;;;;;6.30;4.92;;;;;;;14.03;78.49;99682.78;1813397;79;20109;-63
2021/08/04 02:49:19;;;;;;;9.58;5.35;;;;;;;13.99;78.58;99693.50;1804266;79;21025;-64
2021/08/04 02:51:46;;;;;;;;;;;;;;;13.96;78.65;99693.52;1806256;79;21472;-62
2021/08/04 02:54:13;;;;;;;7.30;5.35;;;;;;;13.99;78.79;99688.03;1799235;79;20115;-63
2021/08/04 02:56:39;;;;;;;8.45;5.05;;;;;;;14.00;78.88;99691.00;1696346;81;21017;-63
2021/08/04 02:59:06;;;;;;;5.80;4.80;;;;;;;14.03;78.88;99684.94;1766506;80;21080;-63
2021/08/04 03:01:33;;;;;;;9.93;4.80;;;;;;;14.10;78.96;99693.59;1794457;79;21078;-63
2021/08/04 03:03:59;;;;;;;;;;;;;;;14.16;78.89;99689.70;1802093;78;21486;-63
2021/08/04 03:06:27;;;;;;;5.92;4.65;;;;;;;14.15;78.75;99692.16;1776613;78;20112;-63
2021/08/04 03:08:53;;;;;;;9.40;5.10;;;;;;;14.02;79.11;99699.75;1776224;79;20995;-63
2021/08/04 03:11:21;;;;;;;8.48;5.28;;;;;;;14.02;79.33;99697.02;1777464;79;21115;-63
2021/08/04 03:13:48;;;;;;;8.53;5.40;;;;;;;14.11;79.45;99700.70;1784867;79;21063;-63
2021/08/04 03:16:14;;;;;;;6.67;4.70;;;;;;;14.19;79.46;99694.58;1793483;78;21043;-63
2021/08/04 03:18:41;;;;;;;7.08;5.12;;;;;;;14.28;79.48;99698.25;1782544;78;21557;-63
2021/08/04 03:21:07;;;;;;;6.25;4.87;;;;;;;14.39;79.53;99699.77;1784042;78;21050;-63
2021/08/04 03:23:34;;;;;;;9.38;5.30;;;;;;;14.49;79.47;99699.36;1796440;80;21019;-63
2021/08/04 03:26:00;;;;;;;;;;;;;;;14.53;79.48;99697.63;1797316;78;21060;-63
2021/08/04 03:28:26;;;;;;;6.33;4.47;;;;;;;14.61;79.55;99699.70;1796196;78;20483;-63
2021/08/04 03:30:53;;;;;;;5.92;4.22;;;;;;;14.68;79.40;99698.76;1788363;78;20999;-63
2021/08/04 03:33:19;;;;;;;;;;;;;;;14.73;79.01;99705.53;1773437;80;21588;-63
2021/08/04 03:35:46;;;;;;;6.85;4.65;;;;;;;14.76;78.79;99710.41;1790663;80;20130;-63
2021/08/04 03:38:12;;;;;;;10.03;5.00;;;;;;;14.74;78.74;99704.41;1790358;78;21038;-63
2021/08/04 03:40:38;;;;;;;;;;;;;;;14.78;78.97;99702.69;1781169;80;21003;-63
2021/08/04 03:43:04;;;;;;;8.88;4.67;;;;;;;14.89;78.82;99713.73;1798631;79;20131;-63
2021/08/04 03:45:32;;;;;;;9.10;4.90;;;;;;;14.85;78.54;99697.64;1797338;79;21007;-63
2021/08/04 03:47:59;;;;;;;7.53;4.30;;;;;;;14.97;78.47;99711.69;1749524;81;21102;-64
2021/08/04 03:50:26;;;;;;;;;;;;;;;15.10;78.49;99723.78;1779489;79;21501;-63
2021/08/04 03:52:52;;;;;;;7.45;4.72;;;;;;;15.27;78.67;99722.64;1788249;78;20103;-64
2021/08/04 03:55:18;;;;;;;7.50;4.65;;;;;;;15.39;78.96;99728.45;1798629;79;20989;-63
2021/08/04 03:57:45;;;;;;;8.00;5.05;;;;;;;15.57;78.51;99727.59;1777808;81;21111;-63
2021/08/04 04:00:12;;;;;;;8.83;5.37;;;;;;;15.75;77.87;99725.30;1787890;79;21030;-64
2021/08/04 04:02:40;;;;;;;9.85;5.10;;;;;;;16.01;77.89;99726.14;1767253;79;21098;-63
2021/08/04 04:05:08;;;;;;;7.90;5.30;;;;;;;16.28;77.58;99721.95;1800733;79;21389;-63
2021/08/04 04:07:35;;;;;;;8.88;5.12;;;;;;;16.51;76.92;99727.72;1778839;80;21025;-64
2021/08/04 04:10:01;;;;;;;8.78;5.20;;;;;;;16.72;76.15;99735.75;1796027;79;21084;-63
2021/08/04 04:12:28;;;;;;;;;;;;;;;17.02;76.13;99732.00;1783888;79;21087;-63
2021/08/04 04:14:56;;;;;;;11.78;5.22;;;;;;;17.41;75.90;99727.93;1796816;80;20110;-64
2021/08/04 04:17:23;;;;;;;13.08;8.85;;;;;;;17.74;75.37;99719.61;1775161;80;21082;-63
2021/08/04 04:19:51;;;;;;;14.07;10.43;;;;;;;18.08;74.25;99710.59;1765497;81;21093;-64
2021/08/04 04:22:17;;;;;;;13.58;9.13;;;;;;;18.31;72.97;99714.03;1762584;81;21074;-64
2021/08/04 04:24:44;;;;;;;10.15;8.58;;;;;;;18.51;72.29;99712.60;1739096;81;21046;-64
2021/08/04 04:27:10;;;;;;;;;;;;;;;18.73;71.52;99722.91;1792266;80;21964;-64
2021/08/04 04:29:37;;;;;;;8.07;6.07;;;;;;;19.05;70.68;99727.64;1780243;80;20096;-64
2021/08/04 04:32:06;;;;;;;6.58;4.92;;;;;;;19.24;69.54;99732.20;1785843;79;21086;-64
2021/08/04 04:34:32;;;;;;;9.05;4.85;;;;;;;19.38;68.90;99736.38;1735573;81;21081;-64
2021/08/04 04:36:59;;;;;;;9.68;5.25;;;;;;;19.48;68.37;99745.48;1735859;82;21566;-65
2021/08/04 04:39:26;;;;;;;7.22;5.42;;;;;;;19.57;67.84;99746.25;1770813;78;21065;-63
2021/08/04 04:41:53;;;;;;;6.70;4.97;;;;;;;19.64;66.93;99750.13;1778542;80;21074;-64
2021/08/04 04:44:19;;;;;;;8.85;5.25;;;;;;;19.70;65.99;99742.45;1776295;78;21042;-64
2021/08/04 04:46:46;;;;;;;8.40;5.40;;;;;;;19.74;65.48;99729.03;1737518;81;21052;-63
2021/08/04 04:49:12;;;;;;;7.78;4.92;;;;;;;19.90;65.01;99729.30;1776562;80;21608;-64
2021/08/04 04:51:39;;;;;;;7.60;4.33;;;;;;;20.04;63.34;99730.42;1780284;79;21047;-64
2021/08/04 04:54:05;;;;;;;6.95;4.58;;;;;;;20.14;63.32;99726.70;1777009;79;21466;-64
2021/08/04 04:56:31;;;;;;;7.83;4.90;;;;;;;20.30;62.12;99731.08;1762581;79;21043;-64
2021/08/04 04:58:58;;;;;;;10.05;4.72;;;;;;;20.41;62.06;99746.12;1776614;79;21514;-64
2021/08/04 05:01:24;;;;;;;5.97;4.42;;;;;;;20.53;62.20;99755.89;1760729;79;21064;-63
2021/08/04 05:03:51;;;;;;;7.00;4.75;;;;;;;20.60;62.24;99754.78;1770455;79;21090;-63
2021/08/04 05:06:17;;;;;;;6.12;4.85;;;;;;;20.60;62.08;99753.96;1735867;82;21090;-62
2021/08/04 05:08:44;;;;;;;7.03;4.62;;;;;;;20.60;62.09;99759.49;1784824;80;21137;-63
2021/08/04 05:11:11;;;;;;;5.72;4.05;;;;;;;20.61;62.36;99764.70;1736120;82;21106;-62
2021/08/04 05:13:38;;;;;;;11.45;4.33;;;;;;;20.64;61.98;99764.59;1778148;79;21499;-63
2021/08/04 05:16:05;;;;;;;7.22;4.70;;;;;;;20.49;61.93;99759.66;1794703;78;21027;-63
2021/08/04 05:18:32;;;;;;;9.35;4.80;;;;;;;20.35;62.89;99753.02;1771682;79;21030;-63
2021/08/04 05:20:58;;;;;;;6.03;4.80;;;;;;;20.28;63.51;99755.50;1799491;79;21029;-66
2021/08/04 05:23:29;;;;;;;8.18;4.60;;;;;;;20.28;63.89;99752.73;1793047;79;21014;-63
2021/08/04 05:25:55;;;;;;;6.28;3.92;;;;;;;20.43;64.00;99763.20;1795481;79;21051;-63
2021/08/04 05:28:22;;;;;;;4.80;3.72;;;;;;;20.72;63.82;99761.77;1787512;78;21528;-62
2021/08/04 05:30:48;;;;;;;6.40;4.22;;;;;;;21.10;64.42;99767.67;1790237;78;21027;-63
2021/08/04 05:33:15;;;;;;;5.35;3.90;;;;;;;21.52;63.75;99765.05;1801594;79;21045;-62
2021/08/04 05:35:41;;;;;;;5.45;3.85;;;;;;;21.92;61.22;99766.63;1794283;79;21010;-63
2021/08/04 05:38:08;;;;;;;6.45;3.40;;;;;;;22.04;60.74;99754.71;1789474;78;21034;-62
2021/08/04 05:40:34;;;;;;;8.28;3.52;;;;;;;22.25;59.84;99745.11;1785219;79;21021;-62
2021/08/04 05:43:00;;;;;;;5.30;2.95;;;;;;;22.53;59.27;99754.87;1785645;79;21044;-62
2021/08/04 05:45:27;;;;;;;5.08;3.00;;;;;;;22.83;58.17;99758.75;1776511;78;21525;-62
2021/08/04 05:47:53;;;;;;;7.00;2.92;;;;;;;23.14;56.49;99755.48;1766255;80;20991;-61
2021/08/04 05:50:20;;;;;;;4.45;2.77;;;;;;;23.42;54.90;99756.08;1786789;78;21030;-62
2021/08/04 05:52:46;;;;;;;3.95;2.60;;;;;;;23.59;54.00;99746.01;1790678;79;21680;-61
2021/08/04 05:55:13;;;;;;;4.12;2.65;;;;;;;23.84;54.48;99750.22;1791954;78;21042;-61
2021/08/04 05:57:40;;;;;;;4.65;2.87;;;;;;;24.14;53.86;99754.16;1778133;79;21585;-62
2021/08/04 06:00:09;;;;;;;5.17;2.90;;;;;;;24.22;53.00;99750.37;1796811;78;21497;-62
2021/08/04 06:02:35;;;;;;;5.70;2.72;;;;;;;24.34;52.20;99755.60;1732980;82;21050;-62
2021/08/04 06:05:03;;;;;;;4.25;2.52;;;;;;;24.52;52.50;99749.83;1752836;80;20992;-62
2021/08/04 06:07:29;;;;;;;4.28;2.70;;;;;;;24.66;50.05;99741.20;1708236;82;21024;-62
2021/08/04 06:09:56;;;;;;;4.62;2.30;;;;;;;24.76;50.35;99747.57;1742204;82;21403;-59
2021/08/04 06:12:23;;;;;;;5.35;2.50;;;;;;;24.85;50.86;99739.05;1731709;81;21049;-59
2021/08/04 06:14:49;;;;;;;4.33;2.85;;;;;;;25.20;48.75;99746.70;1739704;79;20995;-61
2021/08/04 06:17:16;;;;;;;5.00;2.30;;;;;;;25.20;48.75;99746.70;1785255;78;21560;-61
2021/08/04 06:19:43;;;;;;;4.12;2.75;;;;;;;25.37;47.72;99750.99;1778537;79;21011;-61
2021/08/04 06:22:09;;;;;;;3.85;2.05;;;;;;;25.57;47.37;99751.21;1792838;78;21081;-62
2021/08/04 06:24:35;;;;;;;3.92;2.47;;;;;;;25.82;45.54;99753.03;1788411;78;21030;-62
2021/08/04 06:27:02;;;;;;;6.12;2.70;;;;;;;25.93;45.25;99749.83;1794209;79;21012;-62
2021/08/04 06:29:29;;;;;;;4.15;1.85;;;;;;;26.09;46.68;99753.85;1791724;79;21573;-62
2021/08/04 06:31:55;;;;;;;5.90;2.47;;;;;;;26.20;43.42;99756.25;1794995;78;21104;-61
2021/08/04 06:34:21;;;;;;;3.47;2.08;;;;;;;26.27;44.20;99756.36;1796925;79;21507;-62
2021/08/04 06:36:50;;;;;;;3.65;1.70;;;;;;;26.46;43.26;99756.25;1800414;79;21580;-62
2021/08/04 06:39:16;;;;;;;2.98;1.62;;;;;;;26.68;42.24;99750.34;1796238;79;21010;-62
2021/08/04 06:41:42;;;;;;;3.10;1.82;;;;;;;26.79;41.24;99748.49;1781743;78;21079;-62
2021/08/04 06:44:09;;;;;;;4.45;1.82;;;;;;;26.82;39.35;99747.76;1770838;81;21091;-63
2021/08/04 06:46:38;;;;;;;4.70;1.70;;;;;;;26.80;38.58;99750.11;1788549;80;21605;-63
2021/08/04 06:49:06;;;;;;;3.92;1.60;;;;;;;26.70;38.18;99758.57;1791308;78;21006;-63
2021/08/04 06:51:33;;;;;;;2.67;1.70;;;;;;;26.75;38.08;99763.00;1776398;79;21089;-64
2021/08/04 06:54:00;;;;;;;4.58;1.30;;;;;;;26.80;37.85;99757.68;1790055;78;21086;-63
2021/08/04 06:56:27;;;;;;;6.05;1.67;;;;;;;26.80;37.02;99759.08;1803274;78;21062;-63
2021/08/04 06:58:54;;;;;;;3.47;1.67;;;;;;;26.77;37.22;99757.85;1833810;78;21018;-62
2021/08/04 07:01:20;;;;;;;5.15;1.70;;;;;;;26.77;36.95;99757.85;1796736;78;21441;-63
2021/08/04 07:03:47;;;;;;;5.85;1.90;;;;;;;26.78;37.45;99753.08;1793031;78;21474;-60
2021/08/04 07:06:13;;;;;;;3.65;1.92;;;;;;;26.86;38.88;99744.42;1788440;78;21109;-61
2021/08/04 07:08:40;;;;;;;3.85;2.08;;;;;;;27.06;38.96;99747.87;1778634;78;21038;-60
2021/08/04 07:11:07;;;;;;;3.72;2.15;;;;;;;27.19;38.63;99749.20;1787058;78;21043;-60
2021/08/04 07:13:33;;;;;;;3.40;1.75;;;;;;;27.25;39.34;99744.88;1777661;79;20970;-62
2021/08/04 07:15:59;;;;;;;4.42;2.05;;;;;;;27.39;37.65;99738.03;1768139;81;21120;-61
2021/08/04 07:18:26;;;;;;;4.30;1.87;;;;;;;27.48;36.88;99740.55;1790317;78;20967;-61
2021/08/04 07:20:53;;;;;;;5.62;1.90;;;;;;;27.52;36.12;99746.98;1791769;78;21443;-64
2021/08/04 07:23:19;;;;;;;3.45;1.80;;;;;;;27.49;36.76;99747.77;1778899;80;21034;-63
2021/08/04 07:25:45;;;;;;;3.85;1.77;;;;;;;27.51;36.24;99749.56;1800078;79;21071;-62
2021/08/04 07:28:12;;;;;;;4.47;2.20;;;;;;;27.63;37.42;99743.70;1797054;78;21066;-63
2021/08/04 07:30:39;;;;;;;4.22;1.87;;;;;;;27.74;36.80;99743.80;1798827;79;20959;-62
2021/08/04 07:33:06;;;;;;;8.28;2.05;;;;;;;27.88;36.41;99748.11;1794188;80;21014;-62
2021/08/04 07:35:32;;;;;;;4.95;2.22;;;;;;;27.91;35.55;99752.92;1780672;79;21077;-63
2021/08/04 07:37:58;;;;;;;4.37;2.02;;;;;;;27.75;35.89;99751.78;1767591;81;21557;-62
2021/08/04 07:40:25;;;;;;;4.20;1.90;;;;;;;27.72;36.87;99754.55;1781470;78;21026;-62
2021/08/04 07:45:55;;;;;;;2.72;1.30;;;;;;;28.04;33.96;99745.23;1791492;78;64215;-73
2021/08/04 08:20:08;;;;;;;2.33;1.20;;;;;;;28.83;30.82;99740.95;1643435;86;21091;-79
2021/08/04 08:22:35;;;;;;;5.33;1.70;;;;;;;28.57;30.89;99730.80;1695460;84;20993;-76
2021/08/04 08:25:02;;;;;;;2.50;1.40;;;;;;;28.67;31.62;99734.27;1667763;85;21108;-70
2021/08/04 08:29:52;;;;;;;;;;;;;;;28.84;31.39;99725.77;1757488;80;23631;-77
2021/08/04 08:35:56;;;;;;;2.12;1.40;;;;;;;28.70;30.92;99729.28;1717782;79;21094;-73
2021/08/04 08:38:22;;;;;;;2.72;1.65;;;;;;;28.73;31.39;99726.31;1704366;82;20979;-71
2021/08/04 08:40:48;;;;;;;2.87;1.57;;;;;;;28.77;30.51;99722.93;1732784;81;21134;-72
2021/08/04 08:43:16;;;;;;;3.27;1.40;;;;;;;28.69;31.70;99719.30;1750537;81;20999;-75
2021/08/04 08:45:44;;;;;;;2.95;1.30;;;;;;;28.56;31.21;99713.78;1731864;81;21627;-73
2021/08/04 08:48:16;;;;;;;3.80;1.30;;;;;;;28.30;30.19;99707.86;1718208;79;21074;-84
2021/08/04 08:50:49;;;;;;;4.00;1.40;;;;;;;28.11;29.49;99714.53;1710522;82;21026;-80
2021/08/04 08:56:46;;;;;;;3.25;1.35;;;;;;;28.40;30.04;99714.12;1607031;88;21170;-70
2021/08/04 08:59:16;;;;;;;3.25;1.40;;;;;;;28.29;29.65;99712.44;1669176;81;21602;-70
2021/08/04 09:01:43;;;;;;;2.98;1.12;;;;;;;28.29;30.65;99708.24;1687162;83;21010;-72
2021/08/04 09:04:10;;;;;;;2.72;1.05;;;;;;;28.29;29.68;99706.84;1706521;82;21064;-71
2021/08/04 09:06:46;;;;;;;3.52;1.55;;;;;;;28.21;30.34;99710.19;1703147;83;21023;-69
2021/08/04 09:09:25;;;;;;;3.65;1.40;;;;;;;28.13;30.25;99712.14;1702596;83;21062;-69
2021/08/04 09:11:59;;;;;;;2.92;1.42;;;;;;;28.19;31.94;99712.59;1675493;83;20960;-70
2021/08/04 09:14:29;;;;;;;4.45;1.52;;;;;;;28.25;32.17;99711.61;1691285;83;21674;-70
2021/08/04 09:17:04;;;;;;;2.60;1.30;;;;;;;28.38;31.87;99712.88;1702826;83;21002;-69
2021/08/04 09:19:32;;;;;;;4.55;1.60;;;;;;;28.44;30.76;99710.74;1716369;82;21031;-70
2021/08/04 09:22:20;;;;;;;2.90;1.35;;;;;;;28.40;30.82;99708.52;1701177;83;21039;-72
2021/08/04 09:25:08;;;;;;;3.05;1.30;;;;;;;28.32;31.63;99698.47;1700297;83;21036;-72
2021/08/04 09:27:51;;;;;;;2.47;1.45;;;;;;;28.27;31.60;99695.25;1699157;84;21385;-72
2021/08/04 09:30:32;;;;;;;3.25;1.60;;;;;;;28.21;32.89;99701.80;1727340;79;21054;-85
2021/08/04 09:33:16;;;;;;;4.67;1.45;;;;;;;28.29;32.33;99698.45;1762499;81;20971;-83
2021/08/04 09:35:55;;;;;;;2.22;1.32;;;;;;;28.26;31.74;99701.44;1730884;81;21908;-82
2021/08/04 09:38:21;;;;;;;3.75;1.42;;;;;;;28.13;32.99;99689.75;1731594;83;21027;-76
2021/08/04 09:41:09;;;;;;;2.47;1.32;;;;;;;28.28;33.08;99689.84;1738153;81;21609;-79
2021/08/04 09:43:36;;;;;;;2.77;1.20;;;;;;;28.37;31.58;99685.51;1701417;83;21027;-77
2021/08/04 09:49:27;;;;;;;3.65;1.47;;;;;;;28.50;31.72;99691.56;1683661;84;21124;-72
2021/08/04 09:52:09;;;;;;;2.70;1.10;;;;;;;28.55;33.20;99690.60;1680807;84;20997;-71
2021/08/04 09:54:40;;;;;;;3.02;1.32;;;;;;;28.64;32.45;99686.02;1655932;86;21112;-71
2021/08/04 09:57:07;;;;;;;4.80;1.45;;;;;;;28.67;31.28;99685.26;1648380;86;21043;-70
2021/08/04 09:59:33;;;;;;;3.08;1.30;;;;;;;28.71;30.56;99672.07;1654270;86;21454;-72
2021/08/04 10:02:00;;;;;;;4.45;1.77;;;;;;;28.78;31.20;99676.89;1652744;86;21016;-72
2021/08/04 10:04:26;;;;;;;1.98;1.22;;;;;;;28.84;31.37;99678.91;1659579;85;20976;-72
2021/08/04 10:07:07;;;;;;;2.58;1.17;;;;;;;28.81;31.42;99675.50;1681710;83;21440;-71
2021/08/04 10:09:35;;;;;;;1.62;0.98;;;;;;;28.76;31.72;99666.70;1681383;83;20973;-71
2021/08/04 10:12:03;;;;;;;3.75;1.32;;;;;;;28.73;31.10;99671.69;1683778;83;21009;-71
2021/08/04 10:14:29;;;;;;;2.87;1.22;;;;;;;28.66;31.98;99668.24;1682887;83;20993;-72
2021/08/04 10:16:58;;;;;;;3.35;1.32;;;;;;;28.72;32.33;99673.69;1679356;83;21551;-72
2021/08/04 10:19:25;;;;;;;1.87;1.00;;;;;;;28.79;32.73;99667.30;1659511;83;21009;-71
2021/08/04 10:21:52;;;;;;;2.67;1.27;;;;;;;28.74;32.93;99675.48;1683553;83;21005;-72
2021/08/04 10:24:19;;;;;;;4.28;1.35;;;;;;;28.64;33.44;99679.02;1682625;83;21092;-72
2021/08/04 10:26:46;;;;;;;3.08;1.30;;;;;;;28.49;33.32;99673.14;1666509;83;20965;-72
2021/08/04 10:29:13;;;;;;;2.67;1.15;;;;;;;28.49;34.06;99684.34;1681912;83;21021;-72
2021/08/04 10:31:40;;;;;;;2.25;1.15;;;;;;;28.57;34.15;99677.59;1681779;83;20996;-73
2021/08/04 10:34:07;;;;;;;2.95;1.20;;;;;;;28.59;32.63;99682.98;1680888;83;21032;-73
2021/08/04 10:36:37;;;;;;;2.50;0.95;;;;;;;28.54;32.63;99673.59;1672012;84;21000;-75
2021/08/04 10:39:07;;;;;;;2.40;1.10;;;;;;;28.54;33.34;99671.38;1675218;84;21558;-73
2021/08/04 10:41:35;;;;;;;1.87;1.30;;;;;;;28.52;33.79;99676.58;1680744;83;21037;-73
2021/08/04 10:44:06;;;;;;;5.83;1.50;;;;;;;28.41;33.16;99682.10;1679705;83;21084;-74
2021/08/04 10:46:35;;;;;;;2.27;1.20;;;;;;;28.18;33.62;99671.20;1676888;84;21511;-74
2021/08/04 10:49:10;;;;;;;3.67;1.32;;;;;;;28.06;34.94;99672.08;1677360;84;21025;-74
2021/08/04 10:51:45;;;;;;;2.33;1.10;;;;;;;28.02;34.99;99674.08;1677771;84;20949;-73
2021/08/04 10:54:19;;;;;;;3.33;2.00;;;;;;;27.90;35.40;99676.59;1674956;83;21208;-74
2021/08/04 10:56:53;;;;;;;7.45;2.22;;;;;;;27.86;35.37;99672.16;1676355;84;20988;-73
2021/08/04 10:59:27;;;;;;;2.37;1.25;;;;;;;27.82;35.30;99665.73;1677361;84;21567;-73
2021/08/04 11:01:57;;;;;;;2.50;1.27;;;;;;;27.80;35.93;99668.92;1677350;85;20970;-73
2021/08/04 11:04:32;;;;;;;1.82;1.05;;;;;;;27.74;35.36;99664.87;1676939;83;20973;-73
2021/08/04 11:07:17;;;;;;;2.25;1.20;;;;;;;27.68;36.14;99663.05;1677902;84;20997;-74
2021/08/04 11:09:44;;;;;;;3.95;1.40;;;;;;;27.62;35.65;99666.59;1678046;83;21001;-71
2021/08/04 11:12:18;;;;;;;2.67;1.40;;;;;;;27.49;36.46;99670.27;1679499;84;21464;-73
2021/08/04 11:14:58;;;;;;;1.80;1.27;;;;;;;27.43;37.01;99659.80;1677825;84;20961;-73
2021/08/04 11:17:31;;;;;;;2.35;1.32;;;;;;;27.34;36.39;99657.93;1680910;83;21125;-73
2021/08/04 11:20:06;;;;;;;4.08;1.90;;;;;;;27.29;36.43;99661.06;1680387;85;21048;-74
2021/08/04 11:22:41;;;;;;;4.00;1.45;;;;;;;27.24;36.41;99658.05;1682564;83;21139;-74
2021/08/04 11:25:13;;;;;;;2.22;1.20;;;;;;;27.21;36.69;99657.40;1668495;83;21580;-74
2021/08/04 11:27:50;;;;;;;1.98;1.00;;;;;;;27.28;38.46;99659.48;1676328;83;21100;-74
2021/08/04 11:30:35;;;;;;;1.75;0.90;;;;;;;27.40;36.89;99660.57;1677494;84;21464;-74
2021/08/04 11:33:30;;;;;;;2.50;1.40;;;;;;;27.42;35.33;99665.98;1677124;84;21045;-74
2021/08/04 11:36:18;;;;;;;2.45;1.40;;;;;;;27.44;35.28;99655.81;1676522;84;21448;-74
2021/08/04 11:38:53;;;;;;;2.25;1.00;;;;;;;27.46;36.08;99657.06;1677111;83;21037;-74
2021/08/04 11:41:45;;;;;;;2.45;1.30;;;;;;;27.48;34.98;99645.50;1677079;85;20958;-74
2021/08/04 11:44:20;;;;;;;2.60;1.52;;;;;;;27.50;35.22;99655.10;1678376;84;21070;-74
2021/08/04 11:46:53;;;;;;;3.42;1.20;;;;;;;27.55;36.18;99648.36;1665431;83;20978;-74
2021/08/04 11:49:30;;;;;;;1.85;1.02;;;;;;;27.69;35.25;99644.27;1697549;83;21015;-73
2021/08/04 11:52:07;;;;;;;2.05;1.20;;;;;;;27.85;34.81;99637.78;1713100;82;20992;-74
2021/08/04 11:54:59;;;;;;;2.50;1.12;;;;;;;28.03;34.53;99637.30;1712410;82;21043;-74
2021/08/04 11:57:30;;;;;;;3.47;1.25;;;;;;;28.15;35.09;99636.20;1711849;82;21035;-73
2021/08/04 12:00:06;;;;;;;2.98;1.30;;;;;;;28.27;34.40;99626.67;1712685;83;20955;-73
2021/08/04 12:02:39;;;;;;;2.17;1.17;;;;;;;28.37;33.14;99626.72;1712532;82;21047;-73
2021/08/04 12:05:07;;;;;;;3.75;1.50;;;;;;;28.45;33.65;99622.73;1712671;82;20952;-74
2021/08/04 12:07:35;;;;;;;3.17;1.40;;;;;;;28.59;33.14;99618.58;1712116;82;21031;-74
2021/08/04 12:10:07;;;;;;;3.05;1.02;;;;;;;28.68;33.50;99618.25;1712599;84;21502;-73
2021/08/04 12:12:39;;;;;;;2.58;1.40;;;;;;;28.80;33.88;99605.29;1712427;82;21059;-74
2021/08/04 12:15:13;;;;;;;2.87;1.50;;;;;;;28.71;34.08;99602.64;1711939;82;21015;-74
2021/08/04 12:17:40;;;;;;;3.42;1.20;;;;;;;28.55;33.97;99597.39;1712844;82;21083;-74
2021/08/04 12:20:20;;;;;;;2.20;1.40;;;;;;;28.55;33.64;99591.79;1712458;82;21033;-75
2021/08/04 12:23:03;;;;;;;3.65;1.40;;;;;;;28.50;33.59;99588.77;1691464;84;21032;-75
2021/08/04 12:25:30;;;;;;;2.95;1.50;;;;;;;28.46;33.79;99587.14;1692810;85;20973;-76
2021/08/04 12:27:58;;;;;;;4.40;1.37;;;;;;;28.43;33.56;99590.73;1692769;84;21539;-75
2021/08/04 12:30:34;;;;;;;2.10;1.25;;;;;;;28.51;34.20;99588.98;1692856;84;20964;-74
2021/08/04 12:33:18;;;;;;;1.67;1.17;;;;;;;28.52;32.57;99584.19;1694083;83;21048;-73
2021/08/04 12:35:51;;;;;;;3.27;1.30;;;;;;;28.42;34.42;99583.52;1695813;84;21025;-73